sensor_id;sensor_type;location;lat;lon;timestamp;P1;durP1;ratioP1;P2;durP2;ratioP2
68250;SDS011;55066;51.560;4.642;2023-07-28T00:01:59;7.70;;;2.63;;
68250;SDS011;55066;51.560;4.642;2023-07-28T00:04:24;4.97;;;2.70;;
68250;SDS011;55066;51.560;4.642;2023-07-28T00:06:50;5.57;;;2.70;;
68250;SDS011;55066;51.560;4.642;2023-07-28T00:09:15;8.23;;;2.80;;
68250;SDS011;55066;51.560;4.642;2023-07-28T00:11:40;5.33;;;2.70;;
68250;SDS011;55066;51.560;4.642;2023-07-28T00:14:06;4.37;;;2.40;;
68250;SDS011;55066;51.560;4.642;2023-07-28T00:16:31;5.27;;;2.73;;
68250;SDS011;55066;51.560;4.642;2023-07-28T00:18:57;6.50;;;3.33;;
68250;SDS011;55066;51.560;4.642;2023-07-28T00:21:22;7.67;;;2.67;;
68250;SDS011;55066;51.560;4.642;2023-07-28T00:23:48;5.43;;;2.67;;
68250;SDS011;55066;51.560;4.642;2023-07-28T00:26:13;5.90;;;2.80;;
68250;SDS011;55066;51.560;4.642;2023-07-28T00:28:39;6.20;;;2.70;;
68250;SDS011;55066;51.560;4.642;2023-07-28T00:31:04;7.67;;;2.93;;
68250;SDS011;55066;51.560;4.642;2023-07-28T00:33:29;7.93;;;3.20;;
68250;SDS011;55066;51.560;4.642;2023-07-28T00:35:55;7.65;;;3.40;;
68250;SDS011;55066;51.560;4.642;2023-07-28T00:38:21;9.13;;;3.37;;
68250;SDS011;55066;51.560;4.642;2023-07-28T00:40:46;10.53;;;3.13;;
68250;SDS011;55066;51.560;4.642;2023-07-28T00:43:12;10.75;;;3.70;;
68250;SDS011;55066;51.560;4.642;2023-07-28T00:45:37;11.17;;;3.67;;
68250;SDS011;55066;51.560;4.642;2023-07-28T00:48:04;8.27;;;3.83;;
68250;SDS011;55066;51.560;4.642;2023-07-28T00:50:36;8.77;;;4.00;;
68250;SDS011;55066;51.560;4.642;2023-07-28T00:53:02;9.73;;;4.05;;
68250;SDS011;55066;51.560;4.642;2023-07-28T00:55:28;9.10;;;4.13;;
68250;SDS011;55066;51.560;4.642;2023-07-28T00:57:53;9.18;;;4.10;;
68250;SDS011;55066;51.560;4.642;2023-07-28T01:00:19;11.93;;;4.40;;
68250;SDS011;55066;51.560;4.642;2023-07-28T01:02:44;9.67;;;3.93;;
68250;SDS011;55066;51.560;4.642;2023-07-28T01:05:10;13.60;;;4.35;;
68250;SDS011;55066;51.560;4.642;2023-07-28T01:10:24;13.85;;;5.15;;
68250;SDS011;55066;51.560;4.642;2023-07-28T01:12:53;12.75;;;5.07;;
68250;SDS011;55066;51.560;4.642;2023-07-28T01:15:19;13.83;;;4.97;;
68250;SDS011;55066;51.560;4.642;2023-07-28T01:17:44;12.95;;;5.38;;
68250;SDS011;55066;51.560;4.642;2023-07-28T01:20:10;16.33;;;6.40;;
68250;SDS011;55066;51.560;4.642;2023-07-28T01:25:28;16.75;;;6.50;;
68250;SDS011;55066;51.560;4.642;2023-07-28T01:28:03;15.13;;;6.77;;
68250;SDS011;55066;51.560;4.642;2023-07-28T01:30:29;17.25;;;7.10;;
68250;SDS011;55066;51.560;4.642;2023-07-28T01:32:56;16.55;;;6.88;;
68250;SDS011;55066;51.560;4.642;2023-07-28T01:35:22;17.83;;;6.82;;
68250;SDS011;55066;51.560;4.642;2023-07-28T01:37:48;16.53;;;6.77;;
68250;SDS011;55066;51.560;4.642;2023-07-28T01:40:19;17.60;;;6.70;;
68250;SDS011;55066;51.560;4.642;2023-07-28T01:42:45;19.95;;;6.63;;
68250;SDS011;55066;51.560;4.642;2023-07-28T01:45:11;22.25;;;7.47;;
68250;SDS011;55066;51.560;4.642;2023-07-28T01:47:36;17.50;;;6.53;;
68250;SDS011;55066;51.560;4.642;2023-07-28T01:50:02;22.03;;;7.63;;
68250;SDS011;55066;51.560;4.642;2023-07-28T01:52:27;21.25;;;7.88;;
68250;SDS011;55066;51.560;4.642;2023-07-28T01:54:53;20.63;;;7.73;;
68250;SDS011;55066;51.560;4.642;2023-07-28T01:57:18;23.17;;;8.73;;
68250;SDS011;55066;51.560;4.642;2023-07-28T01:59:44;23.88;;;8.55;;
68250;SDS011;55066;51.560;4.642;2023-07-28T02:02:09;18.77;;;8.30;;
68250;SDS011;55066;51.560;4.642;2023-07-28T02:04:35;24.13;;;8.63;;
68250;SDS011;55066;51.560;4.642;2023-07-28T02:07:00;24.70;;;8.80;;
68250;SDS011;55066;51.560;4.642;2023-07-28T02:09:26;26.33;;;9.30;;
68250;SDS011;55066;51.560;4.642;2023-07-28T02:11:51;24.33;;;8.43;;
68250;SDS011;55066;51.560;4.642;2023-07-28T02:14:17;25.83;;;9.05;;
68250;SDS011;55066;51.560;4.642;2023-07-28T02:16:43;25.27;;;9.73;;
68250;SDS011;55066;51.560;4.642;2023-07-28T02:19:08;25.23;;;8.75;;
68250;SDS011;55066;51.560;4.642;2023-07-28T02:21:34;22.20;;;8.93;;
68250;SDS011;55066;51.560;4.642;2023-07-28T02:23:59;25.23;;;9.33;;
68250;SDS011;55066;51.560;4.642;2023-07-28T02:26:25;23.65;;;9.25;;
68250;SDS011;55066;51.560;4.642;2023-07-28T02:28:51;27.77;;;9.70;;
68250;SDS011;55066;51.560;4.642;2023-07-28T02:31:16;25.43;;;9.70;;
68250;SDS011;55066;51.560;4.642;2023-07-28T02:33:42;20.35;;;8.80;;
68250;SDS011;55066;51.560;4.642;2023-07-28T02:36:07;26.33;;;9.80;;
68250;SDS011;55066;51.560;4.642;2023-07-28T02:38:33;26.43;;;9.87;;
68250;SDS011;55066;51.560;4.642;2023-07-28T02:40:58;27.27;;;10.43;;
68250;SDS011;55066;51.560;4.642;2023-07-28T02:43:24;26.20;;;10.00;;
68250;SDS011;55066;51.560;4.642;2023-07-28T02:45:53;22.87;;;10.07;;
68250;SDS011;55066;51.560;4.642;2023-07-28T02:48:19;28.58;;;11.18;;
68250;SDS011;55066;51.560;4.642;2023-07-28T02:50:47;28.90;;;10.50;;
68250;SDS011;55066;51.560;4.642;2023-07-28T02:53:13;24.85;;;10.18;;
68250;SDS011;55066;51.560;4.642;2023-07-28T02:55:42;27.00;;;10.33;;
68250;SDS011;55066;51.560;4.642;2023-07-28T02:58:09;25.50;;;10.70;;
68250;SDS011;55066;51.560;4.642;2023-07-28T03:00:38;34.05;;;10.20;;
68250;SDS011;55066;51.560;4.642;2023-07-28T03:03:08;24.45;;;10.07;;
68250;SDS011;55066;51.560;4.642;2023-07-28T03:05:38;22.65;;;10.48;;
68250;SDS011;55066;51.560;4.642;2023-07-28T03:08:21;30.00;;;10.47;;
68250;SDS011;55066;51.560;4.642;2023-07-28T03:10:46;29.50;;;9.82;;
68250;SDS011;55066;51.560;4.642;2023-07-28T03:13:12;27.63;;;10.03;;
68250;SDS011;55066;51.560;4.642;2023-07-28T03:15:37;23.93;;;9.67;;
68250;SDS011;55066;51.560;4.642;2023-07-28T03:18:04;26.25;;;9.73;;
68250;SDS011;55066;51.560;4.642;2023-07-28T03:20:30;23.42;;;9.82;;
68250;SDS011;55066;51.560;4.642;2023-07-28T03:22:56;27.57;;;9.93;;
68250;SDS011;55066;51.560;4.642;2023-07-28T03:25:21;27.60;;;9.20;;
68250;SDS011;55066;51.560;4.642;2023-07-28T03:27:47;25.85;;;10.02;;
68250;SDS011;55066;51.560;4.642;2023-07-28T03:30:12;28.03;;;9.80;;
68250;SDS011;55066;51.560;4.642;2023-07-28T03:32:38;23.58;;;10.32;;
68250;SDS011;55066;51.560;4.642;2023-07-28T03:35:04;28.80;;;10.23;;
68250;SDS011;55066;51.560;4.642;2023-07-28T03:37:32;25.80;;;9.57;;
68250;SDS011;55066;51.560;4.642;2023-07-28T03:39:58;25.20;;;10.33;;
68250;SDS011;55066;51.560;4.642;2023-07-28T03:42:32;26.57;;;9.47;;
68250;SDS011;55066;51.560;4.642;2023-07-28T03:44:58;27.45;;;10.65;;
68250;SDS011;55066;51.560;4.642;2023-07-28T03:47:23;23.47;;;9.03;;
68250;SDS011;55066;51.560;4.642;2023-07-28T03:49:49;29.13;;;10.13;;
68250;SDS011;55066;51.560;4.642;2023-07-28T03:52:14;24.27;;;9.73;;
68250;SDS011;55066;51.560;4.642;2023-07-28T03:54:40;25.50;;;9.73;;
68250;SDS011;55066;51.560;4.642;2023-07-28T03:57:05;27.27;;;9.60;;
68250;SDS011;55066;51.560;4.642;2023-07-28T03:59:31;27.03;;;9.17;;
68250;SDS011;55066;51.560;4.642;2023-07-28T04:01:56;24.23;;;9.67;;
68250;SDS011;55066;51.560;4.642;2023-07-28T04:04:22;24.57;;;9.40;;
68250;SDS011;55066;51.560;4.642;2023-07-28T04:06:48;27.37;;;8.87;;
68250;SDS011;55066;51.560;4.642;2023-07-28T04:09:18;27.45;;;9.75;;
68250;SDS011;55066;51.560;4.642;2023-07-28T04:11:45;23.90;;;9.05;;
68250;SDS011;55066;51.560;4.642;2023-07-28T04:14:10;23.20;;;9.83;;
68250;SDS011;55066;51.560;4.642;2023-07-28T04:16:36;22.08;;;9.55;;
68250;SDS011;55066;51.560;4.642;2023-07-28T04:19:01;24.80;;;9.07;;
68250;SDS011;55066;51.560;4.642;2023-07-28T04:21:27;24.38;;;9.80;;
68250;SDS011;55066;51.560;4.642;2023-07-28T04:23:52;23.57;;;9.70;;
68250;SDS011;55066;51.560;4.642;2023-07-28T04:26:18;24.10;;;8.93;;
68250;SDS011;55066;51.560;4.642;2023-07-28T04:28:48;27.60;;;9.90;;
68250;SDS011;55066;51.560;4.642;2023-07-28T04:31:13;24.57;;;9.77;;
68250;SDS011;55066;51.560;4.642;2023-07-28T04:33:53;24.70;;;9.45;;
68250;SDS011;55066;51.560;4.642;2023-07-28T04:36:19;24.55;;;9.73;;
68250;SDS011;55066;51.560;4.642;2023-07-28T04:38:45;29.30;;;10.03;;
68250;SDS011;55066;51.560;4.642;2023-07-28T04:41:10;27.95;;;10.48;;
68250;SDS011;55066;51.560;4.642;2023-07-28T04:43:51;25.37;;;9.60;;
68250;SDS011;55066;51.560;4.642;2023-07-28T04:46:17;27.85;;;9.93;;
68250;SDS011;55066;51.560;4.642;2023-07-28T04:48:47;29.65;;;10.40;;
68250;SDS011;55066;51.560;4.642;2023-07-28T04:51:48;26.45;;;9.93;;
68250;SDS011;55066;51.560;4.642;2023-07-28T04:54:23;21.67;;;9.50;;
68250;SDS011;55066;51.560;4.642;2023-07-28T04:56:48;23.97;;;9.93;;
68250;SDS011;55066;51.560;4.642;2023-07-28T04:59:18;30.30;;;10.48;;
68250;SDS011;55066;51.560;4.642;2023-07-28T05:01:44;24.43;;;9.97;;
68250;SDS011;55066;51.560;4.642;2023-07-28T05:04:09;23.15;;;10.00;;
68250;SDS011;55066;51.560;4.642;2023-07-28T05:06:35;25.10;;;10.20;;
68250;SDS011;55066;51.560;4.642;2023-07-28T05:09:00;26.27;;;9.50;;
68250;SDS011;55066;51.560;4.642;2023-07-28T05:11:33;26.87;;;10.20;;
68250;SDS011;55066;51.560;4.642;2023-07-28T05:13:59;22.52;;;9.05;;
68250;SDS011;55066;51.560;4.642;2023-07-28T05:16:25;22.83;;;10.17;;
68250;SDS011;55066;51.560;4.642;2023-07-28T05:19:05;27.00;;;10.15;;
68250;SDS011;55066;51.560;4.642;2023-07-28T05:21:57;22.58;;;9.75;;
68250;SDS011;55066;51.560;4.642;2023-07-28T05:24:31;29.17;;;11.30;;
68250;SDS011;55066;51.560;4.642;2023-07-28T05:26:57;29.17;;;10.23;;
68250;SDS011;55066;51.560;4.642;2023-07-28T05:29:22;25.95;;;10.15;;
68250;SDS011;55066;51.560;4.642;2023-07-28T05:31:48;28.37;;;10.47;;
68250;SDS011;55066;51.560;4.642;2023-07-28T05:34:21;28.15;;;10.80;;
68250;SDS011;55066;51.560;4.642;2023-07-28T05:36:47;28.97;;;10.40;;
68250;SDS011;55066;51.560;4.642;2023-07-28T05:39:12;26.17;;;10.43;;
68250;SDS011;55066;51.560;4.642;2023-07-28T05:41:41;27.13;;;10.90;;
68250;SDS011;55066;51.560;4.642;2023-07-28T05:44:09;30.40;;;10.15;;
68250;SDS011;55066;51.560;4.642;2023-07-28T05:46:35;28.13;;;10.53;;
68250;SDS011;55066;51.560;4.642;2023-07-28T05:49:00;27.20;;;10.07;;
68250;SDS011;55066;51.560;4.642;2023-07-28T05:51:26;30.70;;;10.48;;
68250;SDS011;55066;51.560;4.642;2023-07-28T05:53:51;27.00;;;10.60;;
68250;SDS011;55066;51.560;4.642;2023-07-28T05:56:18;30.98;;;10.68;;
68250;SDS011;55066;51.560;4.642;2023-07-28T05:58:45;29.10;;;10.63;;
68250;SDS011;55066;51.560;4.642;2023-07-28T06:01:14;31.77;;;10.80;;
68250;SDS011;55066;51.560;4.642;2023-07-28T06:03:59;29.77;;;10.70;;
68250;SDS011;55066;51.560;4.642;2023-07-28T06:06:26;31.15;;;10.80;;
68250;SDS011;55066;51.560;4.642;2023-07-28T06:08:52;37.43;;;12.03;;
68250;SDS011;55066;51.560;4.642;2023-07-28T06:11:18;30.00;;;11.15;;
68250;SDS011;55066;51.560;4.642;2023-07-28T06:13:43;29.77;;;12.03;;
68250;SDS011;55066;51.560;4.642;2023-07-28T06:16:11;32.35;;;12.35;;
68250;SDS011;55066;51.560;4.642;2023-07-28T06:18:37;31.42;;;11.45;;
68250;SDS011;55066;51.560;4.642;2023-07-28T06:21:08;35.90;;;11.63;;
68250;SDS011;55066;51.560;4.642;2023-07-28T06:23:33;28.45;;;11.15;;
68250;SDS011;55066;51.560;4.642;2023-07-28T06:25:59;33.63;;;12.40;;
68250;SDS011;55066;51.560;4.642;2023-07-28T06:28:25;35.10;;;12.73;;
68250;SDS011;55066;51.560;4.642;2023-07-28T06:30:56;35.30;;;12.27;;
68250;SDS011;55066;51.560;4.642;2023-07-28T06:33:25;31.40;;;11.98;;
68250;SDS011;55066;51.560;4.642;2023-07-28T06:35:50;29.33;;;12.15;;
68250;SDS011;55066;51.560;4.642;2023-07-28T06:38:17;33.53;;;12.37;;
68250;SDS011;55066;51.560;4.642;2023-07-28T06:40:43;30.85;;;12.43;;
68250;SDS011;55066;51.560;4.642;2023-07-28T06:43:08;33.63;;;12.57;;
68250;SDS011;55066;51.560;4.642;2023-07-28T06:45:35;31.45;;;12.57;;
68250;SDS011;55066;51.560;4.642;2023-07-28T06:48:01;38.25;;;13.55;;
68250;SDS011;55066;51.560;4.642;2023-07-28T06:50:26;34.33;;;13.07;;
68250;SDS011;55066;51.560;4.642;2023-07-28T06:52:51;31.00;;;11.93;;
68250;SDS011;55066;51.560;4.642;2023-07-28T06:55:20;29.98;;;11.90;;
68250;SDS011;55066;51.560;4.642;2023-07-28T06:57:47;26.50;;;10.52;;
68250;SDS011;55066;51.560;4.642;2023-07-28T07:00:13;27.77;;;11.45;;
68250;SDS011;55066;51.560;4.642;2023-07-28T07:02:39;27.30;;;11.27;;
68250;SDS011;55066;51.560;4.642;2023-07-28T07:05:05;29.17;;;11.30;;
68250;SDS011;55066;51.560;4.642;2023-07-28T07:07:32;20.98;;;10.10;;
68250;SDS011;55066;51.560;4.642;2023-07-28T07:09:58;25.35;;;10.43;;
68250;SDS011;55066;51.560;4.642;2023-07-28T07:12:23;26.53;;;10.43;;
68250;SDS011;55066;51.560;4.642;2023-07-28T07:14:49;25.77;;;10.13;;
68250;SDS011;55066;51.560;4.642;2023-07-28T07:17:14;18.73;;;8.00;;
68250;SDS011;55066;51.560;4.642;2023-07-28T07:19:40;18.33;;;7.80;;
68250;SDS011;55066;51.560;4.642;2023-07-28T07:22:05;17.47;;;7.47;;
68250;SDS011;55066;51.560;4.642;2023-07-28T07:24:31;14.57;;;7.00;;
68250;SDS011;55066;51.560;4.642;2023-07-28T07:26:57;18.67;;;7.28;;
68250;SDS011;55066;51.560;4.642;2023-07-28T07:29:22;19.10;;;7.60;;
68250;SDS011;55066;51.560;4.642;2023-07-28T07:31:48;19.10;;;8.13;;
68250;SDS011;55066;51.560;4.642;2023-07-28T07:34:14;19.75;;;7.47;;
68250;SDS011;55066;51.560;4.642;2023-07-28T07:36:39;20.23;;;7.23;;
68250;SDS011;55066;51.560;4.642;2023-07-28T07:39:05;18.07;;;7.70;;
68250;SDS011;55066;51.560;4.642;2023-07-28T07:41:31;14.77;;;6.68;;
68250;SDS011;55066;51.560;4.642;2023-07-28T07:43:56;13.87;;;6.67;;
68250;SDS011;55066;51.560;4.642;2023-07-28T07:46:22;16.33;;;7.07;;
68250;SDS011;55066;51.560;4.642;2023-07-28T07:48:48;19.38;;;7.85;;
68250;SDS011;55066;51.560;4.642;2023-07-28T07:51:14;15.33;;;7.20;;
68250;SDS011;55066;51.560;4.642;2023-07-28T07:53:40;17.42;;;7.55;;
68250;SDS011;55066;51.560;4.642;2023-07-28T07:56:06;20.63;;;7.63;;
68250;SDS011;55066;51.560;4.642;2023-07-28T07:58:33;17.37;;;7.70;;
68250;SDS011;55066;51.560;4.642;2023-07-28T08:00:59;18.88;;;6.57;;
68250;SDS011;55066;51.560;4.642;2023-07-28T08:03:24;16.45;;;7.07;;
68250;SDS011;55066;51.560;4.642;2023-07-28T08:05:50;19.77;;;8.40;;
68250;SDS011;55066;51.560;4.642;2023-07-28T08:08:16;17.92;;;7.82;;
68250;SDS011;55066;51.560;4.642;2023-07-28T08:10:44;15.68;;;6.80;;
68250;SDS011;55066;51.560;4.642;2023-07-28T08:13:10;17.70;;;7.23;;
68250;SDS011;55066;51.560;4.642;2023-07-28T08:15:36;14.93;;;6.53;;
68250;SDS011;55066;51.560;4.642;2023-07-28T08:18:01;23.87;;;7.97;;
68250;SDS011;55066;51.560;4.642;2023-07-28T08:20:26;13.63;;;6.50;;
68250;SDS011;55066;51.560;4.642;2023-07-28T08:22:52;13.73;;;5.90;;
68250;SDS011;55066;51.560;4.642;2023-07-28T08:25:18;16.70;;;6.50;;
68250;SDS011;55066;51.560;4.642;2023-07-28T08:27:43;18.90;;;6.93;;
68250;SDS011;55066;51.560;4.642;2023-07-28T08:30:09;13.10;;;6.13;;
68250;SDS011;55066;51.560;4.642;2023-07-28T08:32:35;16.75;;;7.03;;
68250;SDS011;55066;51.560;4.642;2023-07-28T08:35:01;14.13;;;6.30;;
68250;SDS011;55066;51.560;4.642;2023-07-28T08:37:28;13.55;;;5.10;;
68250;SDS011;55066;51.560;4.642;2023-07-28T08:39:53;14.38;;;6.25;;
68250;SDS011;55066;51.560;4.642;2023-07-28T08:42:20;13.17;;;6.13;;
68250;SDS011;55066;51.560;4.642;2023-07-28T08:44:46;15.82;;;6.38;;
68250;SDS011;55066;51.560;4.642;2023-07-28T08:47:12;14.45;;;6.43;;
68250;SDS011;55066;51.560;4.642;2023-07-28T08:49:37;14.57;;;5.87;;
68250;SDS011;55066;51.560;4.642;2023-07-28T08:52:03;12.37;;;5.63;;
68250;SDS011;55066;51.560;4.642;2023-07-28T08:54:30;12.77;;;5.75;;
68250;SDS011;55066;51.560;4.642;2023-07-28T08:56:57;14.43;;;5.70;;
68250;SDS011;55066;51.560;4.642;2023-07-28T08:59:26;17.00;;;6.88;;
68250;SDS011;55066;51.560;4.642;2023-07-28T09:01:54;12.82;;;6.20;;
68250;SDS011;55066;51.560;4.642;2023-07-28T09:04:23;13.20;;;5.60;;
68250;SDS011;55066;51.560;4.642;2023-07-28T09:06:49;12.52;;;6.03;;
68250;SDS011;55066;51.560;4.642;2023-07-28T09:09:16;12.73;;;5.63;;
68250;SDS011;55066;51.560;4.642;2023-07-28T09:11:47;12.20;;;5.80;;
68250;SDS011;55066;51.560;4.642;2023-07-28T09:14:15;12.75;;;5.75;;
68250;SDS011;55066;51.560;4.642;2023-07-28T09:16:42;14.38;;;6.22;;
68250;SDS011;55066;51.560;4.642;2023-07-28T09:19:08;15.65;;;6.55;;
68250;SDS011;55066;51.560;4.642;2023-07-28T09:21:34;13.93;;;5.97;;
68250;SDS011;55066;51.560;4.642;2023-07-28T09:24:01;12.68;;;6.40;;
68250;SDS011;55066;51.560;4.642;2023-07-28T09:26:42;13.65;;;6.47;;
68250;SDS011;55066;51.560;4.642;2023-07-28T09:31:38;11.18;;;5.72;;
68250;SDS011;55066;51.560;4.642;2023-07-28T09:34:06;10.87;;;5.30;;
68250;SDS011;55066;51.560;4.642;2023-07-28T09:36:33;10.38;;;5.10;;
68250;SDS011;55066;51.560;4.642;2023-07-28T09:38:59;11.77;;;5.90;;
68250;SDS011;55066;51.560;4.642;2023-07-28T09:41:29;12.77;;;5.60;;
68250;SDS011;55066;51.560;4.642;2023-07-28T09:43:55;10.40;;;5.60;;
68250;SDS011;55066;51.560;4.642;2023-07-28T09:46:22;11.05;;;5.40;;
68250;SDS011;55066;51.560;4.642;2023-07-28T09:48:49;8.75;;;4.97;;
68250;SDS011;55066;51.560;4.642;2023-07-28T09:51:20;9.33;;;5.17;;
68250;SDS011;55066;51.560;4.642;2023-07-28T09:54:05;9.93;;;4.88;;
68250;SDS011;55066;51.560;4.642;2023-07-28T09:56:36;9.75;;;4.90;;
68250;SDS011;55066;51.560;4.642;2023-07-28T09:59:04;9.07;;;5.00;;
68250;SDS011;55066;51.560;4.642;2023-07-28T10:01:34;10.13;;;4.78;;
68250;SDS011;55066;51.560;4.642;2023-07-28T10:04:00;8.67;;;4.30;;
68250;SDS011;55066;51.560;4.642;2023-07-28T10:06:26;9.38;;;4.75;;
68250;SDS011;55066;51.560;4.642;2023-07-28T10:08:52;10.23;;;4.33;;
68250;SDS011;55066;51.560;4.642;2023-07-28T10:11:18;8.30;;;4.60;;
68250;SDS011;55066;51.560;4.642;2023-07-28T10:13:44;9.70;;;4.40;;
68250;SDS011;55066;51.560;4.642;2023-07-28T10:16:11;10.25;;;3.78;;
68250;SDS011;55066;51.560;4.642;2023-07-28T10:18:39;7.35;;;4.38;;
68250;SDS011;55066;51.560;4.642;2023-07-28T10:21:15;9.02;;;4.20;;
68250;SDS011;55066;51.560;4.642;2023-07-28T10:23:42;7.80;;;4.05;;
68250;SDS011;55066;51.560;4.642;2023-07-28T10:26:09;7.53;;;3.90;;
68250;SDS011;55066;51.560;4.642;2023-07-28T10:28:35;6.68;;;4.22;;
68250;SDS011;55066;51.560;4.642;2023-07-28T10:31:07;7.70;;;4.25;;
68250;SDS011;55066;51.560;4.642;2023-07-28T10:33:45;6.72;;;3.88;;
68250;SDS011;55066;51.560;4.642;2023-07-28T10:38:46;5.93;;;3.50;;
68250;SDS011;55066;51.560;4.642;2023-07-28T10:41:34;5.60;;;3.15;;
68250;SDS011;55066;51.560;4.642;2023-07-28T10:44:00;6.90;;;3.15;;
68250;SDS011;55066;51.560;4.642;2023-07-28T10:46:26;5.53;;;3.00;;
68250;SDS011;55066;51.560;4.642;2023-07-28T10:48:52;5.78;;;3.45;;
68250;SDS011;55066;51.560;4.642;2023-07-28T10:51:25;6.65;;;3.20;;
68250;SDS011;55066;51.560;4.642;2023-07-28T10:53:57;5.20;;;2.80;;
68250;SDS011;55066;51.560;4.642;2023-07-28T10:56:23;5.47;;;2.97;;
68250;SDS011;55066;51.560;4.642;2023-07-28T10:59:02;6.57;;;3.80;;
68250;SDS011;55066;51.560;4.642;2023-07-28T11:01:35;5.50;;;3.30;;
68250;SDS011;55066;51.560;4.642;2023-07-28T11:04:16;6.38;;;3.65;;
68250;SDS011;55066;51.560;4.642;2023-07-28T11:06:49;7.03;;;3.50;;
68250;SDS011;55066;51.560;4.642;2023-07-28T11:09:17;7.60;;;4.22;;
68250;SDS011;55066;51.560;4.642;2023-07-28T11:11:43;7.05;;;4.38;;
68250;SDS011;55066;51.560;4.642;2023-07-28T11:14:09;8.93;;;4.40;;
68250;SDS011;55066;51.560;4.642;2023-07-28T11:16:35;7.40;;;4.00;;
68250;SDS011;55066;51.560;4.642;2023-07-28T11:19:02;8.63;;;4.47;;
68250;SDS011;55066;51.560;4.642;2023-07-28T11:21:32;6.20;;;4.18;;
68250;SDS011;55066;51.560;4.642;2023-07-28T11:24:02;9.40;;;5.10;;
68250;SDS011;55066;51.560;4.642;2023-07-28T11:26:28;10.27;;;6.20;;
68250;SDS011;55066;51.560;4.642;2023-07-28T11:28:53;11.90;;;6.50;;
68250;SDS011;55066;51.560;4.642;2023-07-28T11:31:22;12.23;;;7.77;;
68250;SDS011;55066;51.560;4.642;2023-07-28T11:33:48;12.45;;;8.45;;
68250;SDS011;55066;51.560;4.642;2023-07-28T11:36:21;18.80;;;9.80;;
68250;SDS011;55066;51.560;4.642;2023-07-28T11:38:48;13.73;;;8.55;;
68250;SDS011;55066;51.560;4.642;2023-07-28T11:41:14;15.23;;;8.90;;
68250;SDS011;55066;51.560;4.642;2023-07-28T11:43:40;16.03;;;10.10;;
68250;SDS011;55066;51.560;4.642;2023-07-28T11:49:12;20.45;;;10.68;;
68250;SDS011;55066;51.560;4.642;2023-07-28T11:51:41;18.67;;;11.98;;
68250;SDS011;55066;51.560;4.642;2023-07-28T11:54:16;19.25;;;11.55;;
68250;SDS011;55066;51.560;4.642;2023-07-28T11:56:47;21.33;;;13.00;;
68250;SDS011;55066;51.560;4.642;2023-07-28T11:59:15;21.60;;;12.73;;
68250;SDS011;55066;51.560;4.642;2023-07-28T12:01:54;20.80;;;13.10;;
68250;SDS011;55066;51.560;4.642;2023-07-28T12:04:40;19.30;;;11.13;;
68250;SDS011;55066;51.560;4.642;2023-07-28T12:12:20;22.33;;;13.00;;
68250;SDS011;55066;51.560;4.642;2023-07-28T12:14:48;23.08;;;14.10;;
68250;SDS011;55066;51.560;4.642;2023-07-28T12:17:19;23.00;;;14.73;;
68250;SDS011;55066;51.560;4.642;2023-07-28T12:19:59;25.17;;;15.80;;
68250;SDS011;55066;51.560;4.642;2023-07-28T12:22:42;21.73;;;12.60;;
68250;SDS011;55066;51.560;4.642;2023-07-28T12:25:09;19.95;;;13.05;;
68250;SDS011;55066;51.560;4.642;2023-07-28T12:27:35;17.15;;;11.70;;
68250;SDS011;55066;51.560;4.642;2023-07-28T12:30:02;16.58;;;10.15;;
68250;SDS011;55066;51.560;4.642;2023-07-28T12:32:28;16.15;;;9.93;;
68250;SDS011;55066;51.560;4.642;2023-07-28T12:34:53;15.93;;;9.73;;
68250;SDS011;55066;51.560;4.642;2023-07-28T12:37:19;15.40;;;10.40;;
68250;SDS011;55066;51.560;4.642;2023-07-28T12:39:45;17.35;;;11.18;;
68250;SDS011;55066;51.560;4.642;2023-07-28T12:42:11;25.63;;;11.03;;
68250;SDS011;55066;51.560;4.642;2023-07-28T12:44:37;16.45;;;10.60;;
68250;SDS011;55066;51.560;4.642;2023-07-28T12:47:04;14.52;;;9.80;;
68250;SDS011;55066;51.560;4.642;2023-07-28T12:49:30;16.70;;;10.33;;
68250;SDS011;55066;51.560;4.642;2023-07-28T12:51:56;17.02;;;10.40;;
68250;SDS011;55066;51.560;4.642;2023-07-28T12:54:25;17.17;;;9.93;;
68250;SDS011;55066;51.560;4.642;2023-07-28T12:56:51;16.35;;;10.63;;
68250;SDS011;55066;51.560;4.642;2023-07-28T12:59:17;16.20;;;10.00;;
68250;SDS011;55066;51.560;4.642;2023-07-28T13:01:42;17.70;;;10.73;;
68250;SDS011;55066;51.560;4.642;2023-07-28T13:04:08;15.83;;;10.47;;
68250;SDS011;55066;51.560;4.642;2023-07-28T13:06:33;18.60;;;10.68;;
68250;SDS011;55066;51.560;4.642;2023-07-28T13:08:59;15.97;;;10.20;;
68250;SDS011;55066;51.560;4.642;2023-07-28T13:11:25;17.30;;;10.57;;
68250;SDS011;55066;51.560;4.642;2023-07-28T13:13:50;21.70;;;11.80;;
68250;SDS011;55066;51.560;4.642;2023-07-28T13:16:16;17.07;;;11.50;;
68250;SDS011;55066;51.560;4.642;2023-07-28T13:18:44;17.83;;;12.38;;
68250;SDS011;55066;51.560;4.642;2023-07-28T13:21:10;18.83;;;11.30;;
68250;SDS011;55066;51.560;4.642;2023-07-28T13:23:36;18.35;;;11.98;;
68250;SDS011;55066;51.560;4.642;2023-07-28T13:26:02;16.83;;;10.35;;
68250;SDS011;55066;51.560;4.642;2023-07-28T13:28:30;16.85;;;10.25;;
68250;SDS011;55066;51.560;4.642;2023-07-28T13:30:56;13.63;;;9.50;;
68250;SDS011;55066;51.560;4.642;2023-07-28T13:33:21;15.33;;;9.83;;
68250;SDS011;55066;51.560;4.642;2023-07-28T13:35:47;13.30;;;9.45;;
68250;SDS011;55066;51.560;4.642;2023-07-28T13:38:13;14.80;;;8.30;;
68250;SDS011;55066;51.560;4.642;2023-07-28T13:40:38;11.82;;;7.80;;
68250;SDS011;55066;51.560;4.642;2023-07-28T13:43:03;13.47;;;7.73;;
68250;SDS011;55066;51.560;4.642;2023-07-28T13:45:29;10.17;;;7.00;;
68250;SDS011;55066;51.560;4.642;2023-07-28T13:47:55;9.77;;;6.65;;
68250;SDS011;55066;51.560;4.642;2023-07-28T13:50:20;10.37;;;6.30;;
68250;SDS011;55066;51.560;4.642;2023-07-28T13:52:46;9.10;;;6.32;;
68250;SDS011;55066;51.560;4.642;2023-07-28T13:55:12;8.30;;;6.50;;
68250;SDS011;55066;51.560;4.642;2023-07-28T13:57:37;9.43;;;6.33;;
68250;SDS011;55066;51.560;4.642;2023-07-28T14:00:04;9.20;;;6.40;;
68250;SDS011;55066;51.560;4.642;2023-07-28T14:02:34;8.15;;;5.55;;
68250;SDS011;55066;51.560;4.642;2023-07-28T14:05:03;12.57;;;7.47;;
68250;SDS011;55066;51.560;4.642;2023-07-28T14:07:29;10.83;;;7.13;;
68250;SDS011;55066;51.560;4.642;2023-07-28T14:09:54;9.77;;;6.90;;
68250;SDS011;55066;51.560;4.642;2023-07-28T14:12:20;10.93;;;7.00;;
68250;SDS011;55066;51.560;4.642;2023-07-28T14:14:45;12.90;;;6.93;;
68250;SDS011;55066;51.560;4.642;2023-07-28T14:17:11;10.57;;;5.63;;
68250;SDS011;55066;51.560;4.642;2023-07-28T14:19:37;9.07;;;5.10;;
68250;SDS011;55066;51.560;4.642;2023-07-28T14:22:04;8.00;;;4.93;;
68250;SDS011;55066;51.560;4.642;2023-07-28T14:24:29;7.82;;;4.80;;
68250;SDS011;55066;51.560;4.642;2023-07-28T14:26:55;5.70;;;4.10;;
68250;SDS011;55066;51.560;4.642;2023-07-28T14:29:20;5.17;;;3.40;;
68250;SDS011;55066;51.560;4.642;2023-07-28T14:31:46;5.93;;;3.20;;
68250;SDS011;55066;51.560;4.642;2023-07-28T14:34:11;4.20;;;2.80;;
68250;SDS011;55066;51.560;4.642;2023-07-28T14:36:37;5.17;;;2.70;;
68250;SDS011;55066;51.560;4.642;2023-07-28T14:39:03;4.72;;;2.78;;
68250;SDS011;55066;51.560;4.642;2023-07-28T14:41:29;4.17;;;2.77;;
68250;SDS011;55066;51.560;4.642;2023-07-28T14:43:54;5.23;;;2.60;;
68250;SDS011;55066;51.560;4.642;2023-07-28T14:46:20;3.60;;;2.20;;
68250;SDS011;55066;51.560;4.642;2023-07-28T14:48:47;4.73;;;2.07;;
68250;SDS011;55066;51.560;4.642;2023-07-28T14:51:15;4.05;;;1.90;;
68250;SDS011;55066;51.560;4.642;2023-07-28T14:53:41;4.25;;;2.00;;